sensor_id;sensor_type;location;lat;lon;timestamp;pressure;altitude;pressure_sealevel;temperature;humidity
38022;BME280;23832;43.216;27.946;2023-02-12T00:00:08;101799.47;;;5.32;38.79
38022;BME280;23832;43.216;27.946;2023-02-12T00:02:10;101797.81;;;5.31;38.94
38022;BME280;23832;43.216;27.946;2023-02-12T00:04:12;101796.97;;;5.31;38.76
38022;BME280;23832;43.216;27.946;2023-02-12T00:06:14;101789.22;;;5.29;38.64
38022;BME280;23832;43.216;27.946;2023-02-12T00:08:15;101789.22;;;5.29;38.83
38022;BME280;23832;43.216;27.946;2023-02-12T00:10:19;101790.28;;;5.27;38.89
38022;BME280;23832;43.216;27.946;2023-02-12T00:12:20;101795.63;;;5.25;38.98
38022;BME280;23832;43.216;27.946;2023-02-12T00:14:22;101793.13;;;5.24;39.27
38022;BME280;23832;43.216;27.946;2023-02-12T00:16:24;101791.22;;;5.26;39.06
38022;BME280;23832;43.216;27.946;2023-02-12T00:18:26;101787.78;;;5.25;39.09
38022;BME280;23832;43.216;27.946;2023-02-12T00:20:28;101786.94;;;5.25;39.18
38022;BME280;23832;43.216;27.946;2023-02-12T00:22:30;101786.00;;;5.26;38.94
38022;BME280;23832;43.216;27.946;2023-02-12T00:24:31;101793.72;;;5.27;38.92
38022;BME280;23832;43.216;27.946;2023-02-12T00:26:35;101794.69;;;5.26;39.00
38022;BME280;23832;43.216;27.946;2023-02-12T00:28:36;101793.00;;;5.25;39.00
38022;BME280;23832;43.216;27.946;2023-02-12T00:30:38;101793.00;;;5.25;39.15
38022;BME280;23832;43.216;27.946;2023-02-12T00:32:40;101792.19;;;5.25;39.13
38022;BME280;23832;43.216;27.946;2023-02-12T00:34:43;101790.50;;;5.24;38.74
38022;BME280;23832;43.216;27.946;2023-02-12T00:36:45;101790.50;;;5.24;38.79
38022;BME280;23832;43.216;27.946;2023-02-12T00:38:46;101794.91;;;5.23;38.89
38022;BME280;23832;43.216;27.946;2023-02-12T00:40:48;101783.63;;;5.23;38.79
38022;BME280;23832;43.216;27.946;2023-02-12T00:42:51;101787.91;;;5.24;38.92
38022;BME280;23832;43.216;27.946;2023-02-12T00:44:53;101781.94;;;5.22;38.99
38022;BME280;23832;43.216;27.946;2023-02-12T00:46:54;101780.16;;;5.22;39.21
38022;BME280;23832;43.216;27.946;2023-02-12T00:48:57;101775.78;;;5.23;38.86
38022;BME280;23832;43.216;27.946;2023-02-12T00:50:58;101767.94;;;5.23;39.07
38022;BME280;23832;43.216;27.946;2023-02-12T00:53:00;101774.81;;;5.24;39.42
38022;BME280;23832;43.216;27.946;2023-02-12T00:55:02;101772.22;;;5.24;39.25
38022;BME280;23832;43.216;27.946;2023-02-12T00:57:04;101767.94;;;5.23;38.86
38022;BME280;23832;43.216;27.946;2023-02-12T00:59:07;101767.19;;;5.21;39.25
38022;BME280;23832;43.216;27.946;2023-02-12T01:01:09;101763.72;;;5.20;39.05
38022;BME280;23832;43.216;27.946;2023-02-12T01:03:10;101765.50;;;5.20;39.48
38022;BME280;23832;43.216;27.946;2023-02-12T01:05:12;101753.38;;;5.19;39.38
38022;BME280;23832;43.216;27.946;2023-02-12T01:07:14;101748.16;;;5.19;39.56
38022;BME280;23832;43.216;27.946;2023-02-12T01:09:15;101743.88;;;5.18;39.49
38022;BME280;23832;43.216;27.946;2023-02-12T01:11:17;101754.34;;;5.18;39.30
38022;BME280;23832;43.216;27.946;2023-02-12T01:13:19;101755.28;;;5.17;39.51
38022;BME280;23832;43.216;27.946;2023-02-12T01:15:22;101750.06;;;5.17;39.31
38022;BME280;23832;43.216;27.946;2023-02-12T01:17:23;101752.56;;;5.18;39.41
38022;BME280;23832;43.216;27.946;2023-02-12T01:19:25;101758.84;;;5.16;39.34
38022;BME280;23832;43.216;27.946;2023-02-12T01:21:27;101747.56;;;5.15;39.52
38022;BME280;23832;43.216;27.946;2023-02-12T01:23:29;101749.34;;;5.15;39.21
38022;BME280;23832;43.216;27.946;2023-02-12T01:25:31;101756.25;;;5.16;39.27
38022;BME280;23832;43.216;27.946;2023-02-12T01:27:33;101743.06;;;5.17;39.34
38022;BME280;23832;43.216;27.946;2023-02-12T01:29:34;101755.16;;;5.18;39.02
38022;BME280;23832;43.216;27.946;2023-02-12T01:31:40;101744.72;;;5.18;39.07
38022;BME280;23832;43.216;27.946;2023-02-12T01:33:42;101744.84;;;5.17;39.43
38022;BME280;23832;43.216;27.946;2023-02-12T01:35:44;101749.13;;;5.18;39.57
38022;BME280;23832;43.216;27.946;2023-02-12T01:37:46;101744.84;;;5.17;39.22
38022;BME280;23832;43.216;27.946;2023-02-12T01:39:48;101740.44;;;5.17;39.40
38022;BME280;23832;43.216;27.946;2023-02-12T01:41:50;101737.94;;;5.16;39.20
38022;BME280;23832;43.216;27.946;2023-02-12T01:44:07;101737.94;;;5.16;39.52
38022;BME280;23832;43.216;27.946;2023-02-12T01:46:10;101730.94;;;5.16;39.54
38022;BME280;23832;43.216;27.946;2023-02-12T01:48:16;101743.41;;;5.12;39.46
38022;BME280;23832;43.216;27.946;2023-02-12T01:50:18;101733.97;;;5.10;39.90
38022;BME280;23832;43.216;27.946;2023-02-12T01:52:22;101725.31;;;5.09;39.51
38022;BME280;23832;43.216;27.946;2023-02-12T01:54:25;101727.09;;;5.09;39.62
38022;BME280;23832;43.216;27.946;2023-02-12T01:56:27;101735.03;;;5.07;39.45
38022;BME280;23832;43.216;27.946;2023-02-12T01:58:30;101734.91;;;5.09;39.59
38022;BME280;23832;43.216;27.946;2023-02-12T02:00:35;101734.91;;;5.09;39.46
38022;BME280;23832;43.216;27.946;2023-02-12T02:02:37;101739.31;;;5.08;39.81
38022;BME280;23832;43.216;27.946;2023-02-12T02:04:42;101740.97;;;5.09;39.77
38022;BME280;23832;43.216;27.946;2023-02-12T02:06:47;101740.16;;;5.09;39.72
38022;BME280;23832;43.216;27.946;2023-02-12T02:08:51;101737.66;;;5.07;39.96
38022;BME280;23832;43.216;27.946;2023-02-12T02:10:53;101739.44;;;5.07;39.90
38022;BME280;23832;43.216;27.946;2023-02-12T02:12:54;101740.38;;;5.06;40.11
38022;BME280;23832;43.216;27.946;2023-02-12T02:15:13;101734.44;;;5.04;39.93
38022;BME280;23832;43.216;27.946;2023-02-12T02:17:27;101740.50;;;5.04;40.01
38022;BME280;23832;43.216;27.946;2023-02-12T02:19:35;101737.06;;;5.04;40.01
38022;BME280;23832;43.216;27.946;2023-02-12T02:21:48;101730.25;;;5.01;39.97
38022;BME280;23832;43.216;27.946;2023-02-12T02:23:54;101735.47;;;5.01;39.89
38022;BME280;23832;43.216;27.946;2023-02-12T02:28:23;101727.03;;;4.98;40.04
38022;BME280;23832;43.216;27.946;2023-02-12T02:30:38;101731.63;;;4.94;40.09
38022;BME280;23832;43.216;27.946;2023-02-12T02:32:47;101737.06;;;4.91;40.44
38022;BME280;23832;43.216;27.946;2023-02-12T02:34:53;101741.47;;;4.91;40.46
38022;BME280;23832;43.216;27.946;2023-02-12T02:36:58;101743.25;;;4.90;40.27
38022;BME280;23832;43.216;27.946;2023-02-12T02:39:03;101738.13;;;4.89;40.38
38022;BME280;23832;43.216;27.946;2023-02-12T02:41:08;101745.97;;;4.89;40.63
38022;BME280;23832;43.216;27.946;2023-02-12T02:43:15;101746.81;;;4.89;40.82
38022;BME280;23832;43.216;27.946;2023-02-12T02:45:20;101747.75;;;4.88;40.20
38022;BME280;23832;43.216;27.946;2023-02-12T02:47:29;101745.13;;;4.88;40.75
38022;BME280;23832;43.216;27.946;2023-02-12T02:49:34;101747.03;;;4.86;40.57
38022;BME280;23832;43.216;27.946;2023-02-12T02:51:40;101746.19;;;4.86;40.62
38022;BME280;23832;43.216;27.946;2023-02-12T02:53:43;101745.25;;;4.87;40.46
38022;BME280;23832;43.216;27.946;2023-02-12T02:55:46;101743.59;;;4.86;40.33
38022;BME280;23832;43.216;27.946;2023-02-12T02:57:53;101742.84;;;4.83;40.79
38022;BME280;23832;43.216;27.946;2023-02-12T02:59:57;101743.19;;;4.79;40.65
38022;BME280;23832;43.216;27.946;2023-02-12T03:02:05;101744.25;;;4.76;40.62
38022;BME280;23832;43.216;27.946;2023-02-12T03:04:11;101738.16;;;4.76;40.94
38022;BME280;23832;43.216;27.946;2023-02-12T03:06:18;101739.09;;;4.75;40.66
38022;BME280;23832;43.216;27.946;2023-02-12T03:08:24;101734.81;;;4.74;41.00
38022;BME280;23832;43.216;27.946;2023-02-12T03:10:28;101735.75;;;4.73;40.86
38022;BME280;23832;43.216;27.946;2023-02-12T03:12:32;101743.59;;;4.73;40.79
38022;BME280;23832;43.216;27.946;2023-02-12T03:14:38;101746.44;;;4.70;41.07
38022;BME280;23832;43.216;27.946;2023-02-12T03:16:42;101744.03;;;4.67;40.86
38022;BME280;23832;43.216;27.946;2023-02-12T03:18:46;101745.81;;;4.66;40.97
38022;BME280;23832;43.216;27.946;2023-02-12T03:20:51;101751.78;;;4.68;40.98
38022;BME280;23832;43.216;27.946;2023-02-12T03:22:54;101747.47;;;4.67;41.15
38022;BME280;23832;43.216;27.946;2023-02-12T03:25:00;101750.94;;;4.68;41.00
38022;BME280;23832;43.216;27.946;2023-02-12T03:27:06;101753.56;;;4.68;41.20
38022;BME280;23832;43.216;27.946;2023-02-12T03:29:09;101752.63;;;4.69;40.75
38022;BME280;23832;43.216;27.946;2023-02-12T03:31:12;101751.84;;;4.67;41.14
38022;BME280;23832;43.216;27.946;2023-02-12T03:33:19;101741.63;;;4.64;41.07
38022;BME280;23832;43.216;27.946;2023-02-12T03:35:23;101742.59;;;4.63;41.12
38022;BME280;23832;43.216;27.946;2023-02-12T03:37:28;101744.47;;;4.61;41.40
38022;BME280;23832;43.216;27.946;2023-02-12T03:39:34;101740.09;;;4.61;41.55
38022;BME280;23832;43.216;27.946;2023-02-12T03:41:40;101739.25;;;4.61;41.48
38022;BME280;23832;43.216;27.946;2023-02-12T03:43:45;101748.88;;;4.60;41.73
38022;BME280;23832;43.216;27.946;2023-02-12T03:45:51;101743.63;;;4.60;41.69
38022;BME280;23832;43.216;27.946;2023-02-12T03:47:58;101747.81;;;4.63;41.55
38022;BME280;23832;43.216;27.946;2023-02-12T03:50:05;101745.91;;;4.65;41.81
38022;BME280;23832;43.216;27.946;2023-02-12T03:52:10;101747.59;;;4.66;41.57
38022;BME280;23832;43.216;27.946;2023-02-12T03:54:14;101743.09;;;4.68;41.59
38022;BME280;23832;43.216;27.946;2023-02-12T03:56:17;101741.63;;;4.64;41.61
38022;BME280;23832;43.216;27.946;2023-02-12T03:58:20;101747.09;;;4.61;41.67
38022;BME280;23832;43.216;27.946;2023-02-12T04:00:24;101749.88;;;4.57;41.78
38022;BME280;23832;43.216;27.946;2023-02-12T04:02:26;101750.13;;;4.54;41.63
38022;BME280;23832;43.216;27.946;2023-02-12T04:04:28;101744.06;;;4.54;42.05
38022;BME280;23832;43.216;27.946;2023-02-12T04:06:30;101743.22;;;4.53;42.11
38022;BME280;23832;43.216;27.946;2023-02-12T04:08:31;101750.34;;;4.51;41.88
38022;BME280;23832;43.216;27.946;2023-02-12T04:10:36;101739.06;;;4.51;42.28
38022;BME280;23832;43.216;27.946;2023-02-12T04:12:39;101735.63;;;4.50;42.14
38022;BME280;23832;43.216;27.946;2023-02-12T04:14:45;101734.78;;;4.50;42.33
38022;BME280;23832;43.216;27.946;2023-02-12T04:16:50;101735.63;;;4.50;42.26
38022;BME280;23832;43.216;27.946;2023-02-12T04:18:55;101749.38;;;4.52;42.31
38022;BME280;23832;43.216;27.946;2023-02-12T04:20:57;101748.44;;;4.53;42.15
38022;BME280;23832;43.216;27.946;2023-02-12T04:23:05;101750.34;;;4.51;41.98
38022;BME280;23832;43.216;27.946;2023-02-12T04:25:15;101751.28;;;4.50;42.42
38022;BME280;23832;43.216;27.946;2023-02-12T04:27:19;101747.84;;;4.50;42.07
38022;BME280;23832;43.216;27.946;2023-02-12T04:29:24;101743.63;;;4.47;42.21
38022;BME280;23832;43.216;27.946;2023-02-12T04:31:28;101753.13;;;4.48;42.17
38022;BME280;23832;43.216;27.946;2023-02-12T04:33:32;101760.91;;;4.50;41.97
38022;BME280;23832;43.216;27.946;2023-02-12T04:35:36;101762.88;;;4.46;42.37
38022;BME280;23832;43.216;27.946;2023-02-12T04:37:40;101764.75;;;4.44;42.30
38022;BME280;23832;43.216;27.946;2023-02-12T04:39:44;101764.97;;;4.41;42.23
38022;BME280;23832;43.216;27.946;2023-02-12T04:41:46;101756.50;;;4.38;42.50
38022;BME280;23832;43.216;27.946;2023-02-12T04:43:49;101759.22;;;4.36;42.40
38022;BME280;23832;43.216;27.946;2023-02-12T04:45:51;101767.06;;;4.36;42.50
38022;BME280;23832;43.216;27.946;2023-02-12T04:47:53;101766.22;;;4.36;42.42
38022;BME280;23832;43.216;27.946;2023-02-12T04:49:55;101768.94;;;4.34;42.46
38022;BME280;23832;43.216;27.946;2023-02-12T04:51:57;101768.94;;;4.34;42.62
38022;BME280;23832;43.216;27.946;2023-02-12T04:53:58;101773.44;;;4.32;42.62
38022;BME280;23832;43.216;27.946;2023-02-12T04:56:00;101765.59;;;4.32;42.57
38022;BME280;23832;43.216;27.946;2023-02-12T04:58:02;101768.94;;;4.34;42.41
38022;BME280;23832;43.216;27.946;2023-02-12T05:00:07;101773.22;;;4.35;42.60
38022;BME280;23832;43.216;27.946;2023-02-12T05:02:09;101780.81;;;4.38;43.07
38022;BME280;23832;43.216;27.946;2023-02-12T05:04:11;101779.59;;;4.44;43.02
38022;BME280;23832;43.216;27.946;2023-02-12T05:06:14;101783.88;;;4.45;42.94
38022;BME280;23832;43.216;27.946;2023-02-12T05:08:15;101787.19;;;4.47;42.85
38022;BME280;23832;43.216;27.946;2023-02-12T05:10:17;101791.59;;;4.46;42.83
38022;BME280;23832;43.216;27.946;2023-02-12T05:12:19;101789.50;;;4.51;44.26
38022;BME280;23832;43.216;27.946;2023-02-12T05:14:22;101798.78;;;4.55;44.29
38022;BME280;23832;43.216;27.946;2023-02-12T05:16:27;101801.28;;;4.57;44.06
38022;BME280;23832;43.216;27.946;2023-02-12T05:18:29;101802.88;;;4.60;43.89
38022;BME280;23832;43.216;27.946;2023-02-12T05:20:31;101799.31;;;4.61;43.92
38022;BME280;23832;43.216;27.946;2023-02-12T05:22:33;101798.38;;;4.62;43.83
38022;BME280;23832;43.216;27.946;2023-02-12T05:24:35;101804.31;;;4.64;43.88
38022;BME280;23832;43.216;27.946;2023-02-12T05:26:37;101806.72;;;4.67;43.93
38022;BME280;23832;43.216;27.946;2023-02-12T05:28:39;101810.09;;;4.69;43.80
38022;BME280;23832;43.216;27.946;2023-02-12T05:30:42;101807.47;;;4.69;44.00
38022;BME280;23832;43.216;27.946;2023-02-12T05:32:45;101811.03;;;4.68;44.05
38022;BME280;23832;43.216;27.946;2023-02-12T05:34:46;101804.84;;;4.69;44.27
38022;BME280;23832;43.216;27.946;2023-02-12T05:36:48;101803.91;;;4.70;44.22
38022;BME280;23832;43.216;27.946;2023-02-12T05:38:50;101805.56;;;4.71;44.32
38022;BME280;23832;43.216;27.946;2023-02-12T05:40:52;101809.84;;;4.72;44.38
38022;BME280;23832;43.216;27.946;2023-02-12T05:42:54;101821.88;;;4.74;44.05
38022;BME280;23832;43.216;27.946;2023-02-12T05:44:56;101820.00;;;4.76;44.60
38022;BME280;23832;43.216;27.946;2023-02-12T05:46:58;101820.72;;;4.78;44.76
38022;BME280;23832;43.216;27.946;2023-02-12T05:49:02;101824.91;;;4.81;44.45
38022;BME280;23832;43.216;27.946;2023-02-12T05:51:05;101837.75;;;4.84;44.67
38022;BME280;23832;43.216;27.946;2023-02-12T05:53:06;101843.78;;;4.84;44.64
38022;BME280;23832;43.216;27.946;2023-02-12T05:55:08;101848.94;;;4.86;44.84
38022;BME280;23832;43.216;27.946;2023-02-12T05:57:10;101860.84;;;4.90;44.72
38022;BME280;23832;43.216;27.946;2023-02-12T05:59:12;101858.94;;;4.92;44.92
38022;BME280;23832;43.216;27.946;2023-02-12T06:01:15;101853.53;;;4.95;45.19
38022;BME280;23832;43.216;27.946;2023-02-12T06:03:17;101852.34;;;4.99;44.98
38022;BME280;23832;43.216;27.946;2023-02-12T06:05:20;101850.34;;;5.03;45.15
38022;BME280;23832;43.216;27.946;2023-02-12T06:07:22;101850.78;;;5.09;44.91
38022;BME280;23832;43.216;27.946;2023-02-12T06:09:24;101854.94;;;5.12;44.92
38022;BME280;23832;43.216;27.946;2023-02-12T06:11:26;101857.03;;;5.20;45.09
38022;BME280;23832;43.216;27.946;2023-02-12T06:13:28;101850.53;;;5.25;44.86
38022;BME280;23832;43.216;27.946;2023-02-12T06:15:34;101845.72;;;5.32;44.91
38022;BME280;23832;43.216;27.946;2023-02-12T06:17:36;101847.97;;;5.36;44.76
38022;BME280;23832;43.216;27.946;2023-02-12T06:19:38;101844.00;;;5.44;44.66
38022;BME280;23832;43.216;27.946;2023-02-12T06:21:41;101847.97;;;5.49;44.70
38022;BME280;23832;43.216;27.946;2023-02-12T06:23:43;101853.47;;;5.57;44.74
38022;BME280;23832;43.216;27.946;2023-02-12T06:25:45;101852.06;;;5.64;45.02
38022;BME280;23832;43.216;27.946;2023-02-12T06:27:46;101849.84;;;5.71;45.27
38022;BME280;23832;43.216;27.946;2023-02-12T06:29:48;101851.91;;;5.79;44.90
38022;BME280;23832;43.216;27.946;2023-02-12T06:31:50;101851.22;;;5.88;45.04
38022;BME280;23832;43.216;27.946;2023-02-12T06:33:52;101857.50;;;5.98;44.98
38022;BME280;23832;43.216;27.946;2023-02-12T06:35:55;101855.97;;;6.07;45.38
38022;BME280;23832;43.216;27.946;2023-02-12T06:37:58;101861.25;;;6.18;45.55
38022;BME280;23832;43.216;27.946;2023-02-12T06:40:00;101862.22;;;6.28;45.50
38022;BME280;23832;43.216;27.946;2023-02-12T06:42:02;101862.34;;;6.38;45.67
38022;BME280;23832;43.216;27.946;2023-02-12T06:44:04;101861.44;;;6.50;45.19
38022;BME280;23832;43.216;27.946;2023-02-12T06:46:06;101863.00;;;6.64;45.46
38022;BME280;23832;43.216;27.946;2023-02-12T06:48:08;101869.69;;;6.79;45.48
38022;BME280;23832;43.216;27.946;2023-02-12T06:50:10;101868.41;;;6.96;45.72
38022;BME280;23832;43.216;27.946;2023-02-12T06:52:12;101879.38;;;7.12;46.04
38022;BME280;23832;43.216;27.946;2023-02-12T06:54:16;101871.00;;;7.29;46.02
38022;BME280;23832;43.216;27.946;2023-02-12T06:56:18;101867.16;;;7.45;45.37
38022;BME280;23832;43.216;27.946;2023-02-12T06:58:20;101873.94;;;7.58;45.38
38022;BME280;23832;43.216;27.946;2023-02-12T07:00:21;101884.25;;;7.71;44.79
38022;BME280;23832;43.216;27.946;2023-02-12T07:02:23;101870.88;;;7.85;44.90
38022;BME280;23832;43.216;27.946;2023-02-12T07:04:25;101876.66;;;8.00;45.10
38022;BME280;23832;43.216;27.946;2023-02-12T07:06:27;101876.94;;;8.18;45.30
38022;BME280;23832;43.216;27.946;2023-02-12T07:08:29;101873.03;;;8.33;44.68
38022;BME280;23832;43.216;27.946;2023-02-12T07:10:32;101880.63;;;8.47;44.21
38022;BME280;23832;43.216;27.946;2023-02-12T07:12:34;101892.72;;;8.60;43.88
38022;BME280;23832;43.216;27.946;2023-02-12T07:14:36;101891.81;;;8.70;43.81
38022;BME280;23832;43.216;27.946;2023-02-12T07:16:38;101888.53;;;8.78;43.65
38022;BME280;23832;43.216;27.946;2023-02-12T07:18:40;101888.84;;;8.85;43.27
38022;BME280;23832;43.216;27.946;2023-02-12T07:20:42;101891.94;;;8.90;43.18
38022;BME280;23832;43.216;27.946;2023-02-12T07:22:44;101882.81;;;8.94;43.40
38022;BME280;23832;43.216;27.946;2023-02-12T07:24:46;101892.00;;;8.99;42.88
38022;BME280;23832;43.216;27.946;2023-02-12T07:26:50;101889.91;;;9.03;42.63
38022;BME280;23832;43.216;27.946;2023-02-12T07:28:52;101887.97;;;9.05;42.88
38022;BME280;23832;43.216;27.946;2023-02-12T07:30:54;101893.81;;;9.08;42.62
38022;BME280;23832;43.216;27.946;2023-02-12T07:32:56;101887.59;;;9.09;42.45
38022;BME280;23832;43.216;27.946;2023-02-12T07:34:58;101886.47;;;9.12;42.70
38022;BME280;23832;43.216;27.946;2023-02-12T07:37:00;101897.84;;;9.13;42.19
38022;BME280;23832;43.216;27.946;2023-02-12T07:39:03;101893.41;;;9.13;42.34
38022;BME280;23832;43.216;27.946;2023-02-12T07:41:07;101896.88;;;9.14;42.34
38022;BME280;23832;43.216;27.946;2023-02-12T07:43:10;101902.81;;;9.16;42.45
38022;BME280;23832;43.216;27.946;2023-02-12T07:45:12;101896.63;;;9.17;42.40
38022;BME280;23832;43.216;27.946;2023-02-12T07:47:14;101911.31;;;9.19;42.20
38022;BME280;23832;43.216;27.946;2023-02-12T07:49:17;101905.91;;;9.21;42.23
38022;BME280;23832;43.216;27.946;2023-02-12T07:51:19;101917.81;;;9.25;42.38
38022;BME280;23832;43.216;27.946;2023-02-12T07:53:21;101910.66;;;9.27;42.63
38022;BME280;23832;43.216;27.946;2023-02-12T07:55:23;101909.97;;;9.34;42.44
38022;BME280;23832;43.216;27.946;2023-02-12T07:57:26;101910.13;;;9.43;42.66
38022;BME280;23832;43.216;27.946;2023-02-12T07:59:29;101921.78;;;9.50;42.57
38022;BME280;23832;43.216;27.946;2023-02-12T08:01:31;101937.75;;;9.58;42.83
38022;BME280;23832;43.216;27.946;2023-02-12T08:03:34;101915.88;;;9.67;42.76
38022;BME280;23832;43.216;27.946;2023-02-12T08:05:36;101916.84;;;9.76;42.67
38022;BME280;23832;43.216;27.946;2023-02-12T08:07:37;101915.91;;;9.86;42.65
38022;BME280;23832;43.216;27.946;2023-02-12T08:09:40;101920.19;;;9.97;42.33
38022;BME280;23832;43.216;27.946;2023-02-12T08:11:42;101922.00;;;10.06;42.25
38022;BME280;23832;43.216;27.946;2023-02-12T08:13:47;101933.53;;;10.15;41.96
38022;BME280;23832;43.216;27.946;2023-02-12T08:15:50;101929.97;;;10.26;41.98
38022;BME280;23832;43.216;27.946;2023-02-12T08:17:59;101941.19;;;10.37;41.90
38022;BME280;23832;43.216;27.946;2023-02-12T08:20:01;101939.25;;;10.49;42.11
38022;BME280;23832;43.216;27.946;2023-02-12T08:22:03;101932.84;;;10.61;41.81
38022;BME280;23832;43.216;27.946;2023-02-12T08:24:05;101934.88;;;10.77;41.76
38022;BME280;23832;43.216;27.946;2023-02-12T08:26:08;101943.19;;;10.92;41.29
38022;BME280;23832;43.216;27.946;2023-02-12T08:28:10;101938.56;;;11.03;40.85
38022;BME280;23832;43.216;27.946;2023-02-12T08:30:11;101937.56;;;11.14;40.58
38022;BME280;23832;43.216;27.946;2023-02-12T08:32:15;101941.69;;;11.26;41.21
38022;BME280;23832;43.216;27.946;2023-02-12T08:34:17;101946.91;;;11.36;40.88
38022;BME280;23832;43.216;27.946;2023-02-12T08:36:20;101946.34;;;11.42;40.61
38022;BME280;23832;43.216;27.946;2023-02-12T08:38:23;101942.28;;;11.48;40.46
38022;BME280;23832;43.216;27.946;2023-02-12T08:40:25;101941.53;;;11.55;40.45
38022;BME280;23832;43.216;27.946;2023-02-12T08:42:26;101943.44;;;11.63;40.32
38022;BME280;23832;43.216;27.946;2023-02-12T08:44:28;101942.41;;;11.74;40.78
38022;BME280;23832;43.216;27.946;2023-02-12T08:46:32;101948.22;;;11.87;41.18
38022;BME280;23832;43.216;27.946;2023-02-12T08:48:36;101952.13;;;12.01;41.07
38022;BME280;23832;43.216;27.946;2023-02-12T08:50:38;101946.34;;;12.15;40.89
38022;BME280;23832;43.216;27.946;2023-02-12T08:52:39;101946.09;;;12.26;40.84
38022;BME280;23832;43.216;27.946;2023-02-12T08:54:41;101954.53;;;12.47;41.38
38022;BME280;23832;43.216;27.946;2023-02-12T08:56:42;101953.75;;;12.73;41.53
38022;BME280;23832;43.216;27.946;2023-02-12T08:58:45;101958.44;;;13.05;42.82
38022;BME280;23832;43.216;27.946;2023-02-12T09:00:47;101956.13;;;13.36;43.51
38022;BME280;23832;43.216;27.946;2023-02-12T09:02:48;101954.91;;;13.64;42.98
38022;BME280;23832;43.216;27.946;2023-02-12T09:04:51;101959.94;;;13.84;41.80
38022;BME280;23832;43.216;27.946;2023-02-12T09:06:53;101965.59;;;13.97;40.71
38022;BME280;23832;43.216;27.946;2023-02-12T09:08:55;101961.97;;;14.06;40.27
38022;BME280;23832;43.216;27.946;2023-02-12T09:10:57;101966.09;;;14.09;39.68
38022;BME280;23832;43.216;27.946;2023-02-12T09:12:59;101964.97;;;14.11;39.47
38022;BME280;23832;43.216;27.946;2023-02-12T09:15:01;101970.59;;;14.08;38.41
38022;BME280;23832;43.216;27.946;2023-02-12T09:17:03;101951.81;;;13.85;37.99
38022;BME280;23832;43.216;27.946;2023-02-12T09:19:04;101981.00;;;13.94;37.97
38022;BME280;23832;43.216;27.946;2023-02-12T09:21:08;101973.69;;;13.87;38.27
38022;BME280;23832;43.216;27.946;2023-02-12T09:23:11;101978.50;;;13.84;38.36
38022;BME280;23832;43.216;27.946;2023-02-12T09:25:13;101973.00;;;13.77;38.15
38022;BME280;23832;43.216;27.946;2023-02-12T09:27:15;101982.41;;;13.72;38.33
38022;BME280;23832;43.216;27.946;2023-02-12T09:29:18;101985.56;;;13.67;37.95
38022;BME280;23832;43.216;27.946;2023-02-12T09:31:20;101980.56;;;13.64;38.44
38022;BME280;23832;43.216;27.946;2023-02-12T09:33:25;101983.38;;;13.62;38.77
38022;BME280;23832;43.216;27.946;2023-02-12T09:35:27;101978.09;;;13.62;38.50
38022;BME280;23832;43.216;27.946;2023-02-12T09:37:30;101979.91;;;13.62;38.57
38022;BME280;23832;43.216;27.946;2023-02-12T09:39:32;101977.09;;;13.63;39.06
38022;BME280;23832;43.216;27.946;2023-02-12T09:41:41;101981.25;;;13.66;39.33
38022;BME280;23832;43.216;27.946;2023-02-12T09:43:49;101983.06;;;13.66;39.07
38022;BME280;23832;43.216;27.946;2023-02-12T09:45:54;101981.41;;;13.64;38.90
38022;BME280;23832;43.216;27.946;2023-02-12T09:47:59;101978.59;;;13.58;38.32
38022;BME280;23832;43.216;27.946;2023-02-12T09:50:10;101973.53;;;13.47;37.78
38022;BME280;23832;43.216;27.946;2023-02-12T09:52:16;101981.28;;;13.32;38.11
38022;BME280;23832;43.216;27.946;2023-02-12T09:54:22;101982.81;;;13.17;37.91
38022;BME280;23832;43.216;27.946;2023-02-12T09:56:24;101986.88;;;13.03;38.17
38022;BME280;23832;43.216;27.946;2023-02-12T09:58:28;101982.97;;;12.89;38.53
38022;BME280;23832;43.216;27.946;2023-02-12T10:00:35;101983.50;;;12.75;38.28
38022;BME280;23832;43.216;27.946;2023-02-12T10:02:37;101976.16;;;12.61;39.12
38022;BME280;23832;43.216;27.946;2023-02-12T10:04:40;101976.69;;;12.46;39.75
38022;BME280;23832;43.216;27.946;2023-02-12T10:06:44;101977.91;;;12.34;39.77
38022;BME280;23832;43.216;27.946;2023-02-12T10:08:53;101975.50;;;12.23;39.64
38022;BME280;23832;43.216;27.946;2023-02-12T10:11:04;101973.06;;;12.12;39.51
38022;BME280;23832;43.216;27.946;2023-02-12T10:13:12;101969.28;;;11.97;39.90
38022;BME280;23832;43.216;27.946;2023-02-12T10:15:26;101969.19;;;11.88;40.54
38022;BME280;23832;43.216;27.946;2023-02-12T10:17:32;101972.44;;;11.82;40.84
38022;BME280;23832;43.216;27.946;2023-02-12T10:19:47;101967.31;;;11.71;40.63
38022;BME280;23832;43.216;27.946;2023-02-12T10:21:55;101970.44;;;11.57;41.37
38022;BME280;23832;43.216;27.946;2023-02-12T10:24:04;101966.19;;;11.46;41.63
38022;BME280;23832;43.216;27.946;2023-02-12T10:26:12;101975.66;;;11.39;42.17
38022;BME280;23832;43.216;27.946;2023-02-12T10:28:17;101968.47;;;11.31;42.17
38022;BME280;23832;43.216;27.946;2023-02-12T10:30:20;101978.94;;;11.23;42.18
38022;BME280;23832;43.216;27.946;2023-02-12T10:32:25;101972.84;;;11.13;41.86
38022;BME280;23832;43.216;27.946;2023-02-12T10:34:29;101982.59;;;11.03;41.82
38022;BME280;23832;43.216;27.946;2023-02-12T10:36:36;101980.81;;;10.94;41.89
38022;BME280;23832;43.216;27.946;2023-02-12T10:38:41;101975.25;;;10.87;42.14
38022;BME280;23832;43.216;27.946;2023-02-12T10:40:45;101977.66;;;10.80;43.09
38022;BME280;23832;43.216;27.946;2023-02-12T10:42:51;101975.44;;;10.76;42.82
38022;BME280;23832;43.216;27.946;2023-02-12T10:44:53;101981.84;;;10.73;42.96